Time;durP1;ratioP1;P1;durP2;ratioP2;P2;SDS_P1;SDS_P2;PMS_P1;PMS_P2;Temp;Humidity;BMP_temperature;BMP_pressure;BME280_temperature;BME280_humidity;BME280_pressure;Samples;Min_cycle;Max_cycle;Signal;HPM_P1;HPM_P2
2023/04/17 00:00:35;;;;;;;19.73;9.38;;;;;;;;;;4978257;28;20054;-71
2023/04/17 00:03:02;;;;;;;20.08;9.68;;;;;;;;;;4995720;28;20065;-71
2023/04/17 00:05:30;;;;;;;22.95;10.15;;;;;;;;;;4964831;28;20058;-72
2023/04/17 00:07:58;;;;;;;21.08;9.75;;;;;;;;;;5005083;28;20431;-71
2023/04/17 00:10:25;;;;;;;23.63;9.32;;;;;;;;;;4974966;28;20058;-70
2023/04/17 00:12:52;;;;;;;20.88;9.90;;;;;;;;;;4974729;28;20125;-71
2023/04/17 00:15:20;;;;;;;22.33;9.85;;;;;;;;;;4966412;28;20074;-71
2023/04/17 00:17:47;;;;;;;20.17;8.77;;;;;;;;;;4969958;28;20065;-71
2023/04/17 00:20:13;;;;;;;18.35;8.65;;;;;;;;;;4980255;28;20066;-70
2023/04/17 00:22:40;;;;;;;21.10;9.80;;;;;;;;;;4973181;28;20074;-70
2023/04/17 00:25:09;;;;;;;21.48;9.43;;;;;;;;;;4974385;28;20065;-70
2023/04/17 00:27:36;;;;;;;22.60;9.05;;;;;;;;;;4968692;28;20058;-70
2023/04/17 00:30:02;;;;;;;17.85;8.52;;;;;;;;;;4979344;28;20120;-71
2023/04/17 00:32:30;;;;;;;21.17;9.10;;;;;;;;;;4975673;28;20080;-71
2023/04/17 00:34:57;;;;;;;20.48;9.23;;;;;;;;;;4974539;28;20054;-71
2023/04/17 00:37:24;;;;;;;21.20;9.65;;;;;;;;;;4967616;28;20069;-70
2023/04/17 00:39:50;;;;;;;19.00;9.25;;;;;;;;;;4974594;28;20058;-70
2023/04/17 00:42:17;;;;;;;21.00;8.82;;;;;;;;;;4976309;28;20058;-71
2023/04/17 00:44:43;;;;;;;19.15;9.13;;;;;;;;;;4994701;28;20292;-71
2023/04/17 00:47:10;;;;;;;19.67;9.02;;;;;;;;;;4976176;28;20124;-71
2023/04/17 00:49:39;;;;;;;21.38;9.38;;;;;;;;;;4989313;28;20050;-71
2023/04/17 00:52:05;;;;;;;26.13;9.98;;;;;;;;;;4995596;28;20058;-70
2023/04/17 00:54:32;;;;;;;23.20;9.77;;;;;;;;;;4973900;28;20050;-70
2023/04/17 00:57:00;;;;;;;20.88;9.18;;;;;;;;;;4973117;28;20114;-71
2023/04/17 00:59:28;;;;;;;19.88;9.45;;;;;;;;;;4977042;28;20149;-71
2023/04/17 01:01:54;;;;;;;21.97;9.43;;;;;;;;;;4947529;28;20063;-71
2023/04/17 01:04:21;;;;;;;20.80;9.15;;;;;;;;;;4969823;28;20062;-70
2023/04/17 01:06:49;;;;;;;23.88;9.35;;;;;;;;;;4951997;28;20051;-70
2023/04/17 01:09:16;;;;;;;21.58;9.68;;;;;;;;;;4975834;28;20061;-70
2023/04/17 01:11:42;;;;;;;22.67;8.35;;;;;;;;;;4965120;28;20054;-71
2023/04/17 01:14:09;;;;;;;17.92;8.35;;;;;;;;;;4984071;28;20078;-71
2023/04/17 01:16:37;;;;;;;21.15;8.27;;;;;;;;;;4952822;28;20062;-71
2023/04/17 01:19:04;;;;;;;;;;;;;;;;;;4965429;28;20058;-71
2023/04/17 01:21:31;;;;;;;19.80;7.80;;;;;;;;;;4986631;28;19937;-70
2023/04/17 01:24:02;;;;;;;20.30;8.82;;;;;;;;;;4983935;28;20060;-71
2023/04/17 01:26:30;;;;;;;17.85;8.60;;;;;;;;;;4994846;28;20145;-71
2023/04/17 01:28:57;;;;;;;;;;;;;;;;;;4991650;28;20320;-71
2023/04/17 01:31:24;;;;;;;17.63;7.70;;;;;;;;;;4963479;28;19926;-70
2023/04/17 01:33:50;;;;;;;19.02;8.32;;;;;;;;;;4984498;28;20076;-70
2023/04/17 01:36:17;;;;;;;17.23;8.32;;;;;;;;;;4992476;28;20141;-70
2023/04/17 01:38:44;;;;;;;19.92;9.05;;;;;;;;;;4997370;28;20046;-71
2023/04/17 01:41:13;;;;;;;19.00;8.80;;;;;;;;;;4990793;28;20054;-71
2023/04/17 01:43:40;;;;;;;22.45;9.32;;;;;;;;;;5014110;28;20045;-70
2023/04/17 01:46:07;;;;;;;20.17;8.23;;;;;;;;;;4976936;28;20109;-71
2023/04/17 01:48:34;;;;;;;20.25;8.70;;;;;;;;;;4976134;28;20107;-71
2023/04/17 01:51:01;;;;;;;18.75;8.15;;;;;;;;;;4986170;28;20057;-70
2023/04/17 01:53:27;;;;;;;20.73;8.32;;;;;;;;;;5011809;28;20070;-71
2023/04/17 01:55:54;;;;;;;21.33;8.65;;;;;;;;;;4991443;28;20058;-71
2023/04/17 01:58:22;;;;;;;19.42;8.32;;;;;;;;;;4996253;28;20164;-71
2023/04/17 02:00:50;;;;;;;19.55;8.80;;;;;;;;;;4985803;28;20065;-71
2023/04/17 02:03:16;;;;;;;22.13;9.75;;;;;;;;;;4992481;28;20128;-71
2023/04/17 02:05:45;;;;;;;21.05;9.63;;;;;;;;;;4950619;28;20057;-71
2023/04/17 02:08:11;;;;;;;22.75;8.85;;;;;;;;;;4977991;28;20054;-71
2023/04/17 02:10:38;;;;;;;18.52;8.85;;;;;;;;;;4971126;28;20054;-70
2023/04/17 02:13:05;;;;;;;20.70;8.82;;;;;;;;;;4981361;28;20058;-70
2023/04/17 02:15:33;;;;;;;20.85;8.90;;;;;;;;;;4969765;28;20058;-71
2023/04/17 02:18:00;;;;;;;17.42;8.43;;;;;;;;;;4976729;28;20054;-70
2023/04/17 02:20:27;;;;;;;17.80;8.73;;;;;;;;;;4981229;28;20086;-71
2023/04/17 02:22:53;;;;;;;20.58;9.13;;;;;;;;;;4971955;28;20054;-71
2023/04/17 02:25:20;;;;;;;20.95;9.02;;;;;;;;;;4965039;28;20057;-71
2023/04/17 02:27:46;;;;;;;18.60;8.60;;;;;;;;;;4988846;28;20089;-70
2023/04/17 02:30:13;;;;;;;19.13;8.30;;;;;;;;;;5013450;28;20165;-71
2023/04/17 02:32:41;;;;;;;19.50;8.57;;;;;;;;;;4974561;28;20062;-71
2023/04/17 02:35:08;;;;;;;21.25;8.82;;;;;;;;;;4974129;28;20213;-70
2023/04/17 02:37:35;;;;;;;21.63;9.30;;;;;;;;;;4972948;28;20065;-70
2023/04/17 02:40:02;;;;;;;22.98;9.38;;;;;;;;;;4977205;28;20054;-71
2023/04/17 02:42:28;;;;;;;19.63;8.45;;;;;;;;;;4981505;28;20161;-71
2023/04/17 02:44:55;;;;;;;20.65;9.63;;;;;;;;;;4985907;28;20054;-70
2023/04/17 02:47:22;;;;;;;21.05;9.68;;;;;;;;;;5000547;28;20066;-69
2023/04/17 02:49:49;;;;;;;21.55;9.20;;;;;;;;;;4957479;28;20078;-71
2023/04/17 02:52:16;;;;;;;23.30;9.20;;;;;;;;;;4959026;28;20054;-69
2023/04/17 02:54:43;;;;;;;23.45;9.30;;;;;;;;;;4960242;28;20125;-70
2023/04/17 02:57:09;;;;;;;22.92;9.93;;;;;;;;;;4974158;28;20090;-70
2023/04/17 02:59:36;;;;;;;19.58;8.88;;;;;;;;;;4956190;28;20054;-71
2023/04/17 03:02:03;;;;;;;20.95;9.73;;;;;;;;;;4951047;28;20054;-70
2023/04/17 03:04:30;;;;;;;23.30;9.77;;;;;;;;;;4982169;28;20081;-71
2023/04/17 03:06:58;;;;;;;22.55;9.32;;;;;;;;;;4970718;28;20060;-70
2023/04/17 03:09:25;;;;;;;22.70;8.90;;;;;;;;;;4989293;28;20054;-70
2023/04/17 03:11:51;;;;;;;22.60;9.75;;;;;;;;;;4975993;28;20058;-70
2023/04/17 03:14:18;;;;;;;22.08;9.13;;;;;;;;;;4972930;28;20120;-70
2023/04/17 03:16:45;;;;;;;21.33;9.25;;;;;;;;;;4962290;28;20058;-70
2023/04/17 03:19:11;;;;;;;19.23;8.45;;;;;;;;;;4982660;28;20081;-71
2023/04/17 03:21:38;;;;;;;19.85;9.05;;;;;;;;;;4978831;28;20057;-70
2023/04/17 03:24:06;;;;;;;20.27;9.40;;;;;;;;;;4989957;28;20054;-70
2023/04/17 03:26:33;;;;;;;23.13;9.27;;;;;;;;;;4975575;28;20057;-71
2023/04/17 03:29:00;;;;;;;19.92;9.02;;;;;;;;;;4967201;28;20058;-70
2023/04/17 03:31:27;;;;;;;22.33;9.98;;;;;;;;;;4976682;28;20058;-70
2023/04/17 03:33:53;;;;;;;19.05;9.05;;;;;;;;;;4980206;28;20057;-71
2023/04/17 03:36:20;;;;;;;21.30;9.00;;;;;;;;;;4992458;28;20065;-70
2023/04/17 03:38:47;;;;;;;18.95;9.35;;;;;;;;;;4983649;28;20085;-70
2023/04/17 03:41:15;;;;;;;22.35;9.75;;;;;;;;;;4956700;28;20113;-70
2023/04/17 03:43:41;;;;;;;22.27;9.73;;;;;;;;;;4973552;28;20114;-70
2023/04/17 03:46:08;;;;;;;23.00;9.95;;;;;;;;;;5000320;28;20149;-71
2023/04/17 03:48:35;;;;;;;21.83;9.00;;;;;;;;;;4993611;28;20119;-70
2023/04/17 03:51:02;;;;;;;23.25;10.43;;;;;;;;;;4971919;28;20067;-70
2023/04/17 03:53:29;;;;;;;24.55;9.75;;;;;;;;;;4975386;28;20054;-71
2023/04/17 03:55:56;;;;;;;22.95;9.85;;;;;;;;;;4968579;28;20054;-70
2023/04/17 03:58:24;;;;;;;26.88;9.32;;;;;;;;;;4974769;28;20149;-71
2023/04/17 04:00:54;;;;;;;24.40;9.20;;;;;;;;;;4964635;28;20058;-71
2023/04/17 04:03:20;;;;;;;25.98;11.30;;;;;;;;;;4976390;28;20152;-71
2023/04/17 04:05:47;;;;;;;25.10;9.57;;;;;;;;;;4975846;28;20064;-71
2023/04/17 04:08:14;;;;;;;20.05;9.27;;;;;;;;;;4991359;28;20141;-70
2023/04/17 04:10:43;;;;;;;21.10;9.13;;;;;;;;;;4966046;28;20053;-70
2023/04/17 04:13:09;;;;;;;23.98;9.93;;;;;;;;;;4981049;28;20141;-70
2023/04/17 04:15:37;;;;;;;20.95;9.95;;;;;;;;;;4968663;28;20054;-70
2023/04/17 04:18:04;;;;;;;24.75;9.60;;;;;;;;;;4974960;28;20061;-71
2023/04/17 04:20:34;;;;;;;21.05;9.15;;;;;;;;;;4986263;28;20062;-70
2023/04/17 04:23:02;;;;;;;22.05;9.25;;;;;;;;;;4974399;28;20089;-70
2023/04/17 04:25:28;;;;;;;25.05;9.75;;;;;;;;;;4977017;28;20058;-71
2023/04/17 04:27:55;;;;;;;23.75;10.18;;;;;;;;;;4972875;28;20169;-70
2023/04/17 04:30:24;;;;;;;24.98;9.80;;;;;;;;;;4982610;28;20050;-70
2023/04/17 04:32:50;;;;;;;;;;;;;;;;;;4957311;28;20070;-70
2023/04/17 04:35:19;;;;;;;21.85;8.93;;;;;;;;;;4954643;28;19925;-70
2023/04/17 04:37:45;;;;;;;23.58;9.48;;;;;;;;;;4967480;28;20069;-70
2023/04/17 04:40:13;;;;;;;23.10;10.02;;;;;;;;;;4972708;28;20062;-69
2023/04/17 04:42:40;;;;;;;26.27;10.60;;;;;;;;;;4966860;28;20145;-70
2023/04/17 04:45:08;;;;;;;22.40;9.68;;;;;;;;;;4965442;28;20055;-71
2023/04/17 04:47:36;;;;;;;26.35;10.27;;;;;;;;;;4971281;28;20150;-71
2023/04/17 04:50:02;;;;;;;22.35;10.48;;;;;;;;;;4970581;28;20062;-72
2023/04/17 04:52:30;;;;;;;22.83;9.93;;;;;;;;;;4971566;28;20105;-70
2023/04/17 04:54:58;;;;;;;26.90;10.15;;;;;;;;;;4963702;28;20062;-70
2023/04/17 04:57:24;;;;;;;25.38;10.18;;;;;;;;;;4972032;28;20058;-73
2023/04/17 04:59:51;;;;;;;22.60;9.65;;;;;;;;;;4978732;28;20141;-70
2023/04/17 05:02:20;;;;;;;24.00;10.63;;;;;;;;;;4975885;28;20073;-71
2023/04/17 05:04:47;;;;;;;23.90;10.02;;;;;;;;;;4948685;28;20153;-71
2023/04/17 05:07:13;;;;;;;24.80;10.07;;;;;;;;;;4992255;28;20093;-70
2023/04/17 05:09:42;;;;;;;24.88;10.68;;;;;;;;;;4992834;28;20058;-70
2023/04/17 05:12:13;;;;;;;24.17;10.85;;;;;;;;;;4994253;28;20136;-70
2023/04/17 05:14:42;;;;;;;23.15;9.57;;;;;;;;;;4982798;28;20058;-70
2023/04/17 05:17:12;;;;;;;22.60;9.93;;;;;;;;;;4992363;28;20105;-71
2023/04/17 05:19:39;;;;;;;23.65;9.93;;;;;;;;;;4953608;28;20050;-70
2023/04/17 05:22:05;;;;;;;23.92;10.50;;;;;;;;;;4962420;28;20125;-71
2023/04/17 05:24:32;;;;;;;24.48;9.70;;;;;;;;;;4964552;28;20160;-72
2023/04/17 05:27:01;;;;;;;22.33;9.57;;;;;;;;;;4962581;28;20058;-70
2023/04/17 05:29:29;;;;;;;24.00;9.57;;;;;;;;;;4990642;28;20260;-71
2023/04/17 05:31:56;;;;;;;24.20;10.40;;;;;;;;;;4986216;28;20058;-71
2023/04/17 05:34:24;;;;;;;25.90;10.48;;;;;;;;;;4969331;28;20050;-71
2023/04/17 05:36:51;;;;;;;;;;;;;;;;;;4971322;28;20089;-70
2023/04/17 05:39:18;;;;;;;20.92;9.52;;;;;;;;;;4982347;28;20034;-70
2023/04/17 05:41:44;;;;;;;20.67;9.60;;;;;;;;;;4997617;28;20065;-71
2023/04/17 05:44:12;;;;;;;24.58;9.80;;;;;;;;;;4982181;28;20046;-70
2023/04/17 05:46:39;;;;;;;23.25;9.65;;;;;;;;;;4986942;28;20058;-71
2023/04/17 05:49:06;;;;;;;23.73;9.75;;;;;;;;;;4975255;28;20062;-71
2023/04/17 05:51:35;;;;;;;24.40;9.73;;;;;;;;;;5014171;28;20054;-70
2023/04/17 05:54:04;;;;;;;24.25;9.77;;;;;;;;;;4981324;28;20141;-70
2023/04/17 05:56:34;;;;;;;23.65;10.65;;;;;;;;;;4986875;28;20057;-70
2023/04/17 05:59:01;;;;;;;22.42;10.63;;;;;;;;;;4986871;28;20066;-70
2023/04/17 06:01:29;;;;;;;23.00;9.57;;;;;;;;;;4973617;28;20058;-71
2023/04/17 06:03:56;;;;;;;;;;;;;;;;;;4977682;28;20126;-71
2023/04/17 06:06:28;;;;;;;22.95;9.20;;;;;;;;;;4974923;28;19983;-71
2023/04/17 06:08:57;;;;;;;24.17;9.80;;;;;;;;;;4961400;28;20058;-70
2023/04/17 06:11:24;;;;;;;22.70;9.50;;;;;;;;;;4965180;28;20086;-72
2023/04/17 06:13:57;;;;;;;23.77;9.55;;;;;;;;;;4975814;28;20122;-71
2023/04/17 06:16:24;;;;;;;23.63;9.55;;;;;;;;;;4964751;28;20046;-72
2023/04/17 06:19:05;;;;;;;25.00;9.50;;;;;;;;;;4955284;28;20051;-72
2023/04/17 06:21:34;;;;;;;22.48;9.85;;;;;;;;;;4958244;28;20162;-72
2023/04/17 06:24:01;;;;;;;21.65;9.57;;;;;;;;;;4961822;28;20054;-72
2023/04/17 06:26:27;;;;;;;22.77;9.27;;;;;;;;;;4962242;28;20053;-70
2023/04/17 06:28:54;;;;;;;20.48;8.90;;;;;;;;;;4969325;28;20058;-70
2023/04/17 06:31:22;;;;;;;26.13;10.10;;;;;;;;;;4971852;28;20065;-70
2023/04/17 06:33:50;;;;;;;21.60;9.70;;;;;;;;;;4992636;28;20058;-69
2023/04/17 06:36:18;;;;;;;27.83;10.43;;;;;;;;;;4969827;28;20054;-70
2023/04/17 06:38:46;;;;;;;22.73;9.52;;;;;;;;;;4995531;28;20085;-72
2023/04/17 06:41:15;;;;;;;25.25;10.90;;;;;;;;;;4971403;28;20093;-73
2023/04/17 06:43:58;;;;;;;;;;;;;;;;;;4975951;28;20153;-72
2023/04/17 06:46:25;;;;;;;23.13;9.30;;;;;;;;;;4987015;28;20021;-73
2023/04/17 06:48:56;;;;;;;21.25;9.40;;;;;;;;;;4963824;28;20295;-73
2023/04/17 06:51:24;;;;;;;21.48;9.32;;;;;;;;;;4977085;28;20054;-72
2023/04/17 06:53:53;;;;;;;22.13;9.80;;;;;;;;;;4986887;28;20137;-72
2023/04/17 06:56:23;;;;;;;21.08;9.63;;;;;;;;;;4971072;28;20062;-72
2023/04/17 06:58:49;;;;;;;23.80;10.10;;;;;;;;;;4968326;28;20096;-70
2023/04/17 07:01:17;;;;;;;23.92;8.82;;;;;;;;;;5011980;28;20050;-69
2023/04/17 07:03:43;;;;;;;24.55;9.88;;;;;;;;;;4990889;28;20064;-70
2023/04/17 07:06:10;;;;;;;24.92;10.55;;;;;;;;;;4978228;28;20058;-69
2023/04/17 07:08:39;;;;;;;20.92;8.90;;;;;;;;;;4981763;28;20116;-73
2023/04/17 07:11:08;;;;;;;24.65;10.02;;;;;;;;;;4972631;28;20051;-72
2023/04/17 07:13:35;;;;;;;22.88;9.98;;;;;;;;;;4969596;28;20145;-72
2023/04/17 07:16:02;;;;;;;23.58;10.57;;;;;;;;;;4959895;28;20193;-72
2023/04/17 07:18:29;;;;;;;27.05;11.15;;;;;;;;;;4971923;28;20112;-69
2023/04/17 07:20:56;;;;;;;22.30;9.85;;;;;;;;;;4968295;28;20054;-70
2023/04/17 07:23:23;;;;;;;23.98;10.43;;;;;;;;;;4980681;28;20060;-69
2023/04/17 07:25:50;;;;;;;24.33;9.82;;;;;;;;;;4994363;28;20086;-69
2023/04/17 07:28:18;;;;;;;24.92;10.55;;;;;;;;;;4977080;28;20053;-69
2023/04/17 07:30:45;;;;;;;26.05;11.13;;;;;;;;;;4984943;28;20050;-69
2023/04/17 07:33:12;;;;;;;19.30;9.57;;;;;;;;;;4975705;28;20073;-69
2023/04/17 07:35:38;;;;;;;22.33;10.35;;;;;;;;;;4992724;28;20146;-69
2023/04/17 07:38:05;;;;;;;24.23;10.73;;;;;;;;;;4953815;28;20113;-69
2023/04/17 07:40:35;;;;;;;28.70;11.70;;;;;;;;;;4959551;28;20069;-69
2023/04/17 07:43:02;;;;;;;24.80;10.65;;;;;;;;;;4974758;28;20069;-70
2023/04/17 07:45:30;;;;;;;24.08;11.13;;;;;;;;;;4961055;28;20181;-69
2023/04/17 07:47:57;;;;;;;25.27;10.05;;;;;;;;;;4956698;28;20061;-70
2023/04/17 07:50:24;;;;;;;25.17;10.70;;;;;;;;;;4974173;28;20054;-70
2023/04/17 07:52:51;;;;;;;21.30;10.00;;;;;;;;;;4953262;28;20051;-69
2023/04/17 07:55:17;;;;;;;28.02;10.45;;;;;;;;;;4961354;28;20085;-69
2023/04/17 07:57:45;;;;;;;25.00;11.20;;;;;;;;;;4966489;28;20136;-70
2023/04/17 08:00:13;;;;;;;20.70;10.05;;;;;;;;;;4969980;28;20049;-70
2023/04/17 08:02:42;;;;;;;25.10;10.90;;;;;;;;;;4972669;28;20058;-70
2023/04/17 08:05:11;;;;;;;22.92;10.75;;;;;;;;;;4959530;28;20050;-70
2023/04/17 08:07:39;;;;;;;28.60;10.63;;;;;;;;;;4988819;28;20138;-70
2023/04/17 08:10:06;;;;;;;27.15;11.45;;;;;;;;;;4972443;28;20090;-70
2023/04/17 08:12:35;;;;;;;24.20;10.98;;;;;;;;;;4981488;28;20061;-69
2023/04/17 08:15:03;;;;;;;30.38;12.02;;;;;;;;;;4980982;28;20242;-70
2023/04/17 08:17:30;;;;;;;24.67;10.70;;;;;;;;;;4980449;28;20054;-70
2023/04/17 08:20:01;;;;;;;24.52;11.55;;;;;;;;;;4964449;28;20408;-71
2023/04/17 08:22:28;;;;;;;29.25;11.95;;;;;;;;;;4993008;28;20069;-70
2023/04/17 08:24:56;;;;;;;30.85;12.18;;;;;;;;;;4952938;28;20271;-70
2023/04/17 08:27:23;;;;;;;24.30;11.13;;;;;;;;;;4985107;28;20050;-71
2023/04/17 08:29:50;;;;;;;26.20;10.98;;;;;;;;;;4975456;28;20300;-71
2023/04/17 08:32:19;;;;;;;29.23;11.80;;;;;;;;;;4978448;28;20054;-70
2023/04/17 08:34:46;;;;;;;27.38;11.88;;;;;;;;;;4974454;28;20077;-70
2023/04/17 08:37:14;;;;;;;27.55;11.82;;;;;;;;;;4975592;28;20058;-70
2023/04/17 08:39:40;;;;;;;24.83;10.70;;;;;;;;;;4994988;28;20054;-71
2023/04/17 08:42:09;;;;;;;27.02;10.95;;;;;;;;;;4993472;28;20110;-70
2023/04/17 08:44:35;;;;;;;24.90;11.18;;;;;;;;;;4998916;28;20111;-70
2023/04/17 08:47:03;;;;;;;28.25;12.00;;;;;;;;;;4976960;28;20073;-70
2023/04/17 08:49:31;;;;;;;26.02;11.35;;;;;;;;;;4978573;28;20082;-71
2023/04/17 08:51:57;;;;;;;25.75;11.13;;;;;;;;;;4993302;28;20090;-70
2023/04/17 08:54:27;;;;;;;26.52;11.60;;;;;;;;;;4982324;28;20050;-69
2023/04/17 08:56:56;;;;;;;28.25;11.88;;;;;;;;;;4979790;28;20050;-71
2023/04/17 08:59:23;;;;;;;28.20;12.13;;;;;;;;;;4958534;28;20059;-71
2023/04/17 09:02:00;;;;;;;30.50;12.68;;;;;;;;;;4960128;28;20065;-71
2023/04/17 09:04:37;;;;;;;27.17;12.05;;;;;;;;;;4956994;28;20065;-70
2023/04/17 09:07:03;;;;;;;29.10;12.25;;;;;;;;;;4961372;28;20851;-70
2023/04/17 09:09:45;;;;;;;24.13;11.13;;;;;;;;;;4986871;28;20065;-70
2023/04/17 09:12:15;;;;;;;25.40;12.00;;;;;;;;;;4978714;28;20054;-71
2023/04/17 09:14:43;;;;;;;28.48;11.82;;;;;;;;;;5008288;28;20062;-70
2023/04/17 09:17:12;;;;;;;26.65;11.52;;;;;;;;;;5004384;28;20060;-70
2023/04/17 09:20:02;;;;;;;23.77;11.50;;;;;;;;;;4977666;28;20065;-71
2023/04/17 09:22:33;;;;;;;27.75;12.25;;;;;;;;;;4993997;28;20050;-74
2023/04/17 09:25:10;;;;;;;27.65;11.68;;;;;;;;;;5007637;28;20069;-70
2023/04/17 09:27:39;;;;;;;26.52;12.00;;;;;;;;;;4992793;28;20062;-73
2023/04/17 09:30:10;;;;;;;29.77;12.93;;;;;;;;;;4998916;28;20054;-73
2023/04/17 09:32:38;;;;;;;26.92;11.55;;;;;;;;;;5000564;28;20067;-73
2023/04/17 09:35:05;;;;;;;30.30;12.68;;;;;;;;;;4961825;28;20068;-72
2023/04/17 09:37:47;;;;;;;25.27;11.50;;;;;;;;;;4987622;28;20054;-72
2023/04/17 09:40:14;;;;;;;26.48;12.07;;;;;;;;;;4960130;28;20058;-72
2023/04/17 09:42:56;;;;;;;25.13;12.13;;;;;;;;;;4968731;28;20073;-73
2023/04/17 09:45:25;;;;;;;26.73;12.10;;;;;;;;;;4972412;28;20054;-72
2023/04/17 09:47:54;;;;;;;27.23;12.32;;;;;;;;;;4993561;28;20109;-73
2023/04/17 09:50:24;;;;;;;29.77;12.63;;;;;;;;;;4985772;28;20129;-73
2023/04/17 09:52:53;;;;;;;28.02;12.70;;;;;;;;;;4950645;28;20061;-72
2023/04/17 09:55:28;;;;;;;27.52;12.18;;;;;;;;;;4966911;28;20058;-73
2023/04/17 09:57:56;;;;;;;24.92;12.32;;;;;;;;;;4977771;28;20078;-71
2023/04/17 10:00:25;;;;;;;28.60;13.40;;;;;;;;;;4987507;28;20046;-72
2023/04/17 10:02:52;;;;;;;25.83;11.65;;;;;;;;;;5002951;28;20046;-72
2023/04/17 10:05:20;;;;;;;27.55;12.95;;;;;;;;;;4956688;28;20057;-72
2023/04/17 10:07:46;;;;;;;28.42;12.35;;;;;;;;;;4970812;28;20108;-72
2023/04/17 10:10:21;;;;;;;28.17;12.43;;;;;;;;;;4973476;28;20054;-73
2023/04/17 10:12:48;;;;;;;27.80;12.10;;;;;;;;;;4986186;28;20058;-72
2023/04/17 10:15:16;;;;;;;24.75;11.27;;;;;;;;;;4952698;28;20068;-73
2023/04/17 10:17:45;;;;;;;28.50;12.55;;;;;;;;;;4977101;28;20058;-73
2023/04/17 10:20:34;;;;;;;26.33;11.48;;;;;;;;;;4973087;28;20058;-73
2023/04/17 10:23:29;;;;;;;25.88;12.20;;;;;;;;;;4970086;28;20058;-70
2023/04/17 10:26:14;;;;;;;25.95;12.95;;;;;;;;;;4977591;28;20136;-71
2023/04/17 10:28:47;;;;;;;25.35;11.88;;;;;;;;;;4972178;28;20058;-71
2023/04/17 10:31:14;;;;;;;25.63;11.70;;;;;;;;;;4971926;28;20204;-72
2023/04/17 10:33:49;;;;;;;26.15;12.93;;;;;;;;;;4969477;28;20082;-71
2023/04/17 10:36:35;;;;;;;27.25;11.85;;;;;;;;;;4968749;28;20061;-71
2023/04/17 10:39:12;;;;;;;27.35;12.52;;;;;;;;;;4968905;28;20062;-71
2023/04/17 10:42:01;;;;;;;26.77;12.82;;;;;;;;;;4971685;28;20061;-71
2023/04/17 10:44:33;;;;;;;26.55;12.00;;;;;;;;;;4972131;28;20081;-71
2023/04/17 10:47:05;;;;;;;26.92;12.23;;;;;;;;;;4979929;28;20058;-71
2023/04/17 10:52:43;;;;;;;32.42;16.02;;;;;;;;;;5003125;27;20456;-72
2023/04/17 10:55:17;;;;;;;24.98;12.00;;;;;;;;;;4969873;28;20053;-72
2023/04/17 10:57:53;;;;;;;29.40;12.57;;;;;;;;;;4975340;28;20054;-71
2023/04/17 11:00:21;;;;;;;23.55;12.23;;;;;;;;;;4971333;28;20050;-72
2023/04/17 11:02:56;;;;;;;22.65;11.40;;;;;;;;;;4961684;28;20065;-72
2023/04/17 11:05:22;;;;;;;21.98;11.27;;;;;;;;;;4982148;28;20062;-72
2023/04/17 11:07:54;;;;;;;22.88;11.43;;;;;;;;;;4973761;28;20164;-73
2023/04/17 11:10:22;;;;;;;22.60;11.57;;;;;;;;;;4971762;28;20077;-72
2023/04/17 11:12:50;;;;;;;21.42;10.80;;;;;;;;;;4957420;28;20058;-72
2023/04/17 11:15:16;;;;;;;25.75;11.43;;;;;;;;;;4958733;28;20055;-71
2023/04/17 11:17:47;;;;;;;23.45;11.90;;;;;;;;;;4969125;28;20058;-73
2023/04/17 11:20:20;;;;;;;23.70;11.38;;;;;;;;;;4972824;28;20139;-73
2023/04/17 11:22:47;;;;;;;22.98;11.57;;;;;;;;;;4966903;28;20165;-72
2023/04/17 11:25:22;;;;;;;28.17;11.57;;;;;;;;;;4977046;28;20068;-72
2023/04/17 11:27:55;;;;;;;20.70;10.23;;;;;;;;;;4960161;28;20058;-72
2023/04/17 11:30:29;;;;;;;23.60;11.40;;;;;;;;;;4982540;28;20113;-72
2023/04/17 11:32:57;;;;;;;22.63;10.00;;;;;;;;;;4953386;28;20059;-72
2023/04/17 11:35:29;;;;;;;22.13;10.43;;;;;;;;;;4981957;28;20120;-72
2023/04/17 11:38:10;;;;;;;19.35;10.55;;;;;;;;;;4975935;28;20054;-72
2023/04/17 11:40:41;;;;;;;22.70;10.43;;;;;;;;;;4968025;28;20062;-72
2023/04/17 11:43:11;;;;;;;19.83;9.63;;;;;;;;;;4968566;28;20058;-73
2023/04/17 11:45:44;;;;;;;21.48;10.02;;;;;;;;;;4958116;28;20050;-72
2023/04/17 11:48:13;;;;;;;20.13;10.45;;;;;;;;;;4947513;28;20054;-72
2023/04/17 11:50:41;;;;;;;20.67;10.23;;;;;;;;;;4940827;28;20047;-73
2023/04/17 11:53:13;;;;;;;17.92;9.98;;;;;;;;;;4941492;28;20137;-73
2023/04/17 11:55:44;;;;;;;20.50;10.63;;;;;;;;;;4945284;28;20061;-73
2023/04/17 11:58:12;;;;;;;19.33;10.15;;;;;;;;;;4943387;28;20144;-73
2023/04/17 12:00:42;;;;;;;18.87;9.27;;;;;;;;;;4956946;28;20053;-72
2023/04/17 12:03:27;;;;;;;19.08;8.85;;;;;;;;;;4933158;28;20062;-73
2023/04/17 12:06:00;;;;;;;17.17;9.00;;;;;;;;;;4940565;28;20140;-72
2023/04/17 12:08:27;;;;;;;18.67;9.20;;;;;;;;;;4942915;28;20179;-73
2023/04/17 12:10:56;;;;;;;22.20;9.63;;;;;;;;;;4933520;28;20130;-73
2023/04/17 12:13:22;;;;;;;;;;;;;;;;;;4945443;28;20059;-73
2023/04/17 12:15:49;;;;;;;16.95;8.45;;;;;;;;;;4931248;28;19926;-73
2023/04/17 12:18:21;;;;;;;18.45;9.35;;;;;;;;;;4932351;28;20063;-72
2023/04/17 12:20:48;;;;;;;17.65;8.88;;;;;;;;;;4927581;28;20133;-72
2023/04/17 12:23:15;;;;;;;18.48;9.30;;;;;;;;;;4936266;28;20054;-74
2023/04/17 12:25:42;;;;;;;22.50;9.50;;;;;;;;;;4930607;28;20062;-72
2023/04/17 12:28:13;;;;;;;17.13;8.88;;;;;;;;;;4929118;28;20123;-73
2023/04/17 12:30:41;;;;;;;20.63;9.75;;;;;;;;;;4933942;28;20054;-72
2023/04/17 12:33:08;;;;;;;15.57;8.70;;;;;;;;;;4940144;28;20062;-71
2023/04/17 12:35:36;;;;;;;20.75;9.05;;;;;;;;;;4930289;28;20063;-72
2023/04/17 12:38:03;;;;;;;17.83;8.90;;;;;;;;;;4976148;28;20062;-72
2023/04/17 12:40:31;;;;;;;19.45;8.80;;;;;;;;;;4964079;28;20081;-72
2023/04/17 12:43:02;;;;;;;15.60;9.18;;;;;;;;;;4954988;28;20064;-73
2023/04/17 12:45:32;;;;;;;18.27;9.35;;;;;;;;;;4948084;28;20073;-72
2023/04/17 12:47:59;;;;;;;18.65;8.55;;;;;;;;;;4937912;28;20139;-71
2023/04/17 12:50:26;;;;;;;16.95;8.40;;;;;;;;;;4964055;28;20055;-73
2023/04/17 12:53:04;;;;;;;20.13;9.05;;;;;;;;;;4965368;28;20394;-72
2023/04/17 12:55:31;;;;;;;17.00;8.90;;;;;;;;;;4938544;28;20046;-71
2023/04/17 12:57:57;;;;;;;16.48;8.02;;;;;;;;;;4971904;28;20066;-73
2023/04/17 13:00:28;;;;;;;16.35;8.25;;;;;;;;;;4925954;28;20058;-72
2023/04/17 13:02:57;;;;;;;15.50;7.80;;;;;;;;;;4935631;28;20094;-74
2023/04/17 13:05:23;;;;;;;17.67;8.82;;;;;;;;;;4938964;28;20063;-74
2023/04/17 13:07:52;;;;;;;18.17;8.57;;;;;;;;;;4936053;28;20082;-72
2023/04/17 13:10:19;;;;;;;13.57;7.72;;;;;;;;;;4931618;28;20059;-73
2023/04/17 13:12:45;;;;;;;20.98;8.75;;;;;;;;;;4931574;28;20113;-73
2023/04/17 13:15:15;;;;;;;16.70;8.02;;;;;;;;;;4933888;28;20066;-72
2023/04/17 13:17:42;;;;;;;14.27;7.82;;;;;;;;;;4932187;28;20059;-71
2023/04/17 13:20:11;;;;;;;17.45;7.95;;;;;;;;;;4936463;28;20046;-73
2023/04/17 13:22:40;;;;;;;16.02;8.57;;;;;;;;;;4922250;28;20059;-72
2023/04/17 13:25:24;;;;;;;16.60;7.45;;;;;;;;;;4926476;28;20061;-72
2023/04/17 13:27:53;;;;;;;13.88;7.93;;;;;;;;;;4932176;28;20078;-72
2023/04/17 13:30:23;;;;;;;17.45;7.60;;;;;;;;;;4929550;28;20114;-72
2023/04/17 13:32:53;;;;;;;15.52;8.13;;;;;;;;;;4941023;28;20300;-73
2023/04/17 13:35:21;;;;;;;14.68;7.50;;;;;;;;;;4958116;28;20065;-72
2023/04/17 13:37:48;;;;;;;15.30;7.78;;;;;;;;;;4955316;28;20193;-74
2023/04/17 13:40:14;;;;;;;17.83;7.55;;;;;;;;;;4957454;28;20065;-73
2023/04/17 13:42:41;;;;;;;19.27;7.55;;;;;;;;;;4946821;28;20054;-73
2023/04/17 13:45:08;;;;;;;15.23;8.00;;;;;;;;;;4955442;28;20062;-72
2023/04/17 13:47:35;;;;;;;14.23;6.85;;;;;;;;;;4970155;28;20200;-73
2023/04/17 13:50:02;;;;;;;13.10;7.03;;;;;;;;;;4947179;28;20058;-73
2023/04/17 13:52:36;;;;;;;12.13;6.88;;;;;;;;;;4931545;28;20058;-72
2023/04/17 13:55:06;;;;;;;14.43;6.70;;;;;;;;;;4938659;28;20093;-72
2023/04/17 13:57:34;;;;;;;12.57;6.70;;;;;;;;;;4958510;28;20137;-73
2023/04/17 14:00:05;;;;;;;15.20;7.47;;;;;;;;;;4961100;28;20063;-73
2023/04/17 14:02:34;;;;;;;15.30;7.57;;;;;;;;;;4968761;28;20183;-72
2023/04/17 14:05:10;;;;;;;13.98;6.68;;;;;;;;;;4932360;28;20850;-72
2023/04/17 14:07:46;;;;;;;14.63;6.68;;;;;;;;;;4914994;28;20145;-71
2023/04/17 14:10:15;;;;;;;12.20;6.70;;;;;;;;;;4936620;28;20062;-73
2023/04/17 14:12:44;;;;;;;12.27;6.32;;;;;;;;;;4930263;28;20055;-72
2023/04/17 14:15:21;;;;;;;11.02;6.00;;;;;;;;;;4914422;28;20060;-72
2023/04/17 14:17:48;;;;;;;14.50;7.38;;;;;;;;;;4936776;28;20235;-72
2023/04/17 14:20:18;;;;;;;12.70;6.07;;;;;;;;;;4964796;28;20136;-72
2023/04/17 14:22:46;;;;;;;12.60;6.60;;;;;;;;;;4964295;28;20117;-72
2023/04/17 14:25:15;;;;;;;11.57;6.57;;;;;;;;;;4915235;28;20054;-72
2023/04/17 14:27:46;;;;;;;13.10;7.10;;;;;;;;;;4923557;28;20054;-73
2023/04/17 14:30:20;;;;;;;14.80;6.57;;;;;;;;;;4946442;28;20066;-73
2023/04/17 14:32:48;;;;;;;12.93;6.57;;;;;;;;;;4931178;28;20054;-73
2023/04/17 14:35:16;;;;;;;12.88;6.43;;;;;;;;;;4913420;28;20051;-74
2023/04/17 14:37:42;;;;;;;13.13;6.93;;;;;;;;;;4931176;28;20054;-72
2023/04/17 14:40:15;;;;;;;11.95;6.38;;;;;;;;;;4937495;28;20050;-73